Time;durP1;ratioP1;P1;durP2;ratioP2;P2;SDS_P1;SDS_P2;PMS_P1;PMS_P2;Temp;Humidity;BMP_temperature;BMP_pressure;BME280_temperature;BME280_humidity;BME280_pressure;Samples;Min_cycle;Max_cycle;Signal;HPM_P1;HPM_P2
2023/12/27 00:00:06;;;;;;;;;3.00;3.00;;;;;-143.90;100.00;75792.50;4924503;28;101830;-73
2023/12/27 00:02:34;;;;;;;;;2.00;2.00;;;;;-143.90;100.00;75790.41;4902869;28;101747;-73
2023/12/27 00:05:00;;;;;;;;;7.25;5.00;;;;;-143.90;100.00;75788.34;4917419;28;103311;-73
2023/12/27 00:07:27;;;;;;;;;5.00;3.00;;;;;-143.90;100.00;75796.63;4922655;28;101889;-72
2023/12/27 00:09:53;;;;;;;;;3.50;2.50;;;;;-143.90;100.00;75806.97;4922948;28;102003;-73
2023/12/27 00:12:20;;;;;;;;;2.00;2.00;;;;;-143.90;100.00;75809.03;4924151;28;103087;-73
2023/12/27 00:14:47;;;;;;;;;3.00;3.00;;;;;-143.90;100.00;75806.97;4911307;28;103936;-73
2023/12/27 00:17:13;;;;;;;;;2.25;2.25;;;;;-143.90;100.00;75809.03;4920221;28;101885;-73
2023/12/27 00:19:40;;;;;;;;;3.00;3.00;;;;;-143.90;100.00;75804.91;4921134;28;101681;-73
2023/12/27 00:22:07;;;;;;;;;3.00;3.00;;;;;-143.90;100.00;75806.97;4924750;28;101581;-73
2023/12/27 00:24:33;;;;;;;;;6.50;3.25;;;;;-143.90;100.00;75804.91;4922619;28;103390;-73
2023/12/27 00:27:00;;;;;;;;;3.75;3.00;;;;;-143.90;100.00;75806.97;4917501;28;103125;-73
2023/12/27 00:29:27;;;;;;;;;4.00;3.25;;;;;-143.90;100.00;75804.91;4920068;28;101880;-73
2023/12/27 00:31:53;;;;;;;;;3.50;3.00;;;;;-143.90;100.00;75800.75;4923078;28;101965;-74
2023/12/27 00:34:20;;;;;;;;;6.25;3.25;;;;;-143.90;100.00;75804.91;4918639;28;103323;-73
2023/12/27 00:36:47;;;;;;;;;5.50;3.50;;;;;-143.90;100.00;75800.75;4918252;28;101846;-73
2023/12/27 00:39:14;;;;;;;;;2.50;2.00;;;;;-143.90;100.00;75782.16;4921823;28;102080;-73
2023/12/27 00:41:41;;;;;;;;;2.50;2.50;;;;;-143.90;100.00;75788.34;4920450;28;102938;-72
2023/12/27 00:44:08;;;;;;;;;3.00;2.75;;;;;-143.90;100.00;75780.09;4918079;28;103670;-73
2023/12/27 00:46:35;;;;;;;;;3.00;1.50;;;;;-143.90;100.00;75782.16;4919251;28;102180;-73
2023/12/27 00:49:02;;;;;;;;;2.25;2.00;;;;;-143.90;100.00;75773.88;4901408;28;101677;-74
2023/12/27 00:51:28;;;;;;;;;2.75;1.75;;;;;-143.90;100.00;75780.09;4921568;28;101704;-73
2023/12/27 00:53:55;;;;;;;;;2.00;2.00;;;;;-143.90;100.00;75775.94;4918854;28;103497;-73
2023/12/27 00:56:22;;;;;;;;;2.00;2.00;;;;;-143.90;100.00;75773.88;4904703;28;102086;-73
2023/12/27 00:58:48;;;;;;;;;3.50;2.50;;;;;-143.90;100.00;75771.81;4913631;28;102140;-73
2023/12/27 01:01:17;;;;;;;;;2.00;2.00;;;;;-143.90;100.00;75771.81;4920614;28;101918;-73
2023/12/27 01:03:44;;;;;;;;;4.00;2.75;;;;;-143.90;100.00;75775.94;4913582;28;103709;-73
2023/12/27 01:06:11;;;;;;;;;2.50;1.25;;;;;-143.90;100.00;75778.00;4921165;28;104037;-73
2023/12/27 01:08:38;;;;;;;;;3.00;3.00;;;;;-143.90;100.00;75786.28;4916588;28;102022;-74
2023/12/27 01:11:06;;;;;;;;;3.00;2.00;;;;;-143.90;100.00;75792.50;4921004;28;102149;-73
2023/12/27 01:13:32;;;;;;;;;2.00;2.00;;;;;-143.90;99.93;75788.34;4917806;28;103399;-73
2023/12/27 01:16:00;;;;;;;;;2.50;2.50;;;;;-143.90;100.00;75784.22;4921213;28;102059;-72
2023/12/27 01:18:27;;;;;;;;;2.00;2.00;;;;;-143.90;100.00;75796.63;4919467;28;101969;-73
2023/12/27 01:20:54;;;;;;;;;2.00;2.00;;;;;-143.90;99.31;75811.09;4914104;28;101597;-72
2023/12/27 01:23:21;;;;;;;;;2.00;2.00;;;;;-143.90;99.42;75804.91;4919202;28;103373;-72
2023/12/27 01:25:47;;;;;;;;;1.75;1.75;;;;;-143.90;98.80;75809.03;4906575;28;103075;-73
2023/12/27 01:28:14;;;;;;;;;1.00;1.00;;;;;-143.90;98.30;75800.75;4919212;28;101600;-73
2023/12/27 01:30:41;;;;;;;;;1.00;1.00;;;;;-143.90;97.81;75813.16;4916080;28;103536;-71
2023/12/27 01:33:07;;;;;;;;;1.25;1.25;;;;;-143.90;97.54;75811.09;4914544;28;103239;-73
2023/12/27 01:35:34;;;;;;;;;1.00;1.00;;;;;-143.90;96.80;75813.16;4917441;28;102832;-74
2023/12/27 01:38:01;;;;;;;;;2.00;1.00;;;;;-143.90;95.68;75813.16;4920317;28;101857;-74
2023/12/27 01:40:28;;;;;;;;;1.00;1.00;;;;;-143.90;96.62;75817.31;4900503;28;101847;-73
2023/12/27 01:42:55;;;;;;;;;2.50;1.00;;;;;-143.90;97.18;75837.97;4910831;28;105070;-73
2023/12/27 01:45:21;;;;;;;;;1.25;1.00;;;;;-143.90;97.21;75840.03;4899368;28;101965;-73
2023/12/27 01:47:48;;;;;;;;;0.00;0.00;;;;;-143.90;96.83;75850.38;4917626;28;101711;-73
2023/12/27 01:50:15;;;;;;;;;2.00;1.00;;;;;-143.90;96.47;75866.94;4917074;28;102118;-73
2023/12/27 01:52:42;;;;;;;;;1.75;1.75;;;;;-143.90;97.67;75869.00;4910437;28;103454;-73
2023/12/27 01:55:10;;;;;;;;;1.00;1.00;;;;;-143.90;98.01;75873.13;4919673;28;102013;-73
2023/12/27 01:57:38;;;;;;;;;2.00;1.25;;;;;-143.90;96.73;75881.41;4915193;28;103770;-74
2023/12/27 02:00:07;;;;;;;;;1.75;1.75;;;;;-143.90;96.94;75893.81;4916612;28;101687;-73
2023/12/27 02:02:33;;;;;;;;;2.00;1.00;;;;;-143.90;96.48;75887.59;4913273;28;104401;-74
2023/12/27 02:05:00;;;;;;;;;1.75;1.00;;;;;-143.90;97.23;75889.66;4912472;28;107011;-73
2023/12/27 02:07:27;;;;;;;;;2.00;1.25;;;;;-143.90;96.69;75893.81;4912782;28;102190;-73
2023/12/27 02:09:57;;;;;;;;;1.50;1.00;;;;;-143.90;98.13;75897.94;4916556;28;101871;-74
2023/12/27 02:12:29;;;;;;;;;1.75;1.75;;;;;-143.90;98.27;75904.16;4916948;28;103405;-73
2023/12/27 02:14:57;;;;;;;;;4.25;2.50;;;;;-143.90;98.06;75912.41;4912672;28;101768;-73
2023/12/27 02:17:26;;;;;;;;;2.00;2.00;;;;;-143.90;98.63;75912.41;4917038;28;101721;-73
2023/12/27 02:19:54;;;;;;;;;2.00;2.00;;;;;-143.90;99.55;75924.81;4912952;28;101741;-72
2023/12/27 02:22:23;;;;;;;;;2.00;2.00;;;;;-143.90;99.69;75914.47;4914254;28;103345;-72
2023/12/27 02:24:51;;;;;;;;;1.75;1.25;;;;;-143.90;99.35;75914.47;4910080;28;103143;-72
2023/12/27 02:27:18;;;;;;;;;2.00;2.00;;;;;-143.90;100.00;75916.56;4921629;28;101777;-72
2023/12/27 02:29:45;;;;;;;;;3.00;1.75;;;;;-143.90;100.00;75918.63;4919252;28;101749;-73
2023/12/27 02:32:11;;;;;;;;;1.25;1.00;;;;;-143.90;100.00;75928.97;4922680;28;103572;-73
2023/12/27 02:34:38;;;;;;;;;1.00;1.00;;;;;-143.90;100.00;75924.81;4903786;28;102628;-73
2023/12/27 02:37:05;;;;;;;;;1.75;1.00;;;;;-143.90;100.00;75931.03;4914566;28;101765;-72
2023/12/27 02:39:31;;;;;;;;;1.75;1.75;;;;;-143.90;100.00;75943.44;4923000;28;101897;-73
2023/12/27 02:41:58;;;;;;;;;2.00;2.00;;;;;-143.90;100.00;75945.50;4919696;28;103487;-74
2023/12/27 02:44:28;;;;;;;;;2.00;2.00;;;;;-143.90;100.00;75941.38;4919598;28;101907;-72
2023/12/27 02:46:55;;;;;;;;;2.00;2.00;;;;;-143.90;100.00;75939.28;4916054;28;101719;-73
2023/12/27 02:49:22;;;;;;;;;3.75;1.75;;;;;-143.90;100.00;75939.28;4924034;28;106856;-72
2023/12/27 02:51:48;;;;;;;;;4.00;3.00;;;;;-143.90;100.00;75964.13;4926618;28;107775;-73
2023/12/27 02:54:15;;;;;;;;;1.25;1.25;;;;;-143.90;100.00;75978.59;4928201;28;101663;-73
2023/12/27 02:56:42;;;;;;;;;2.00;1.00;;;;;-143.90;100.00;75980.66;4922799;28;102038;-73
2023/12/27 02:59:09;;;;;;;;;3.00;2.00;;;;;-143.90;100.00;76007.53;4922228;28;102146;-72
2023/12/27 03:01:35;;;;;;;;;3.00;3.00;;;;;-143.90;100.00;76028.22;4921444;28;106384;-72
2023/12/27 03:04:02;;;;;;;;;2.50;2.50;;;;;-143.90;100.00;76048.88;4924524;28;101925;-72
2023/12/27 03:06:29;;;;;;;;;6.50;3.75;;;;;-143.90;100.00;76057.16;4924695;28;101759;-72
2023/12/27 03:08:55;;;;;;;;;3.50;2.25;;;;;-143.90;100.00;76063.38;4917336;28;102207;-72
2023/12/27 03:11:22;;;;;;;;;5.25;3.75;;;;;-143.90;100.00;76077.84;4922246;28;103556;-71
2023/12/27 03:13:49;;;;;;;;;5.50;3.75;;;;;-143.90;100.00;76084.03;4923268;28;102070;-73
2023/12/27 03:16:18;;;;;;;;;4.50;2.75;;;;;-143.90;100.00;76077.84;4923812;28;102016;-73
2023/12/27 03:18:45;;;;;;;;;4.25;4.25;;;;;-143.90;100.00;76081.97;4918514;28;101731;-72
2023/12/27 03:21:12;;;;;;;;;3.75;3.00;;;;;-143.90;100.00;76075.78;4922981;28;103510;-72
2023/12/27 03:23:39;;;;;;;;;3.50;3.00;;;;;-143.90;100.00;76069.56;4920372;28;102655;-73
2023/12/27 03:26:05;;;;;;;;;4.25;3.00;;;;;-143.90;100.00;76073.72;4921171;28;102139;-72
2023/12/27 03:28:32;;;;;;;;;5.75;4.25;;;;;-143.90;100.00;76084.03;4924868;28;101918;-72
2023/12/27 03:30:58;;;;;;;;;2.50;2.00;;;;;-143.90;100.00;76071.63;4916503;28;103583;-72
2023/12/27 03:33:25;;;;;;;;;3.25;2.00;;;;;-143.90;100.00;76065.44;4919063;28;102875;-72
2023/12/27 03:35:52;;;;;;;;;5.00;3.00;;;;;-143.90;100.00;76094.38;4922988;28;103027;-72
2023/12/27 03:38:19;;;;;;;;;1.00;1.00;;;;;-143.90;100.00;76092.31;4925404;28;101921;-72
2023/12/27 03:40:45;;;;;;;;;2.50;2.00;;;;;-143.90;100.00;76110.94;4914075;28;103540;-72
2023/12/27 03:43:12;;;;;;;;;2.00;2.00;;;;;-143.90;100.00;76113.00;4923630;28;101525;-73
2023/12/27 03:45:39;;;;;;;;;2.50;2.00;;;;;-143.90;100.00;76117.13;4920038;28;102215;-72
2023/12/27 03:48:06;;;;;;;;;5.50;4.25;;;;;-143.90;100.00;76123.34;4922962;28;101633;-71
2023/12/27 03:50:32;;;;;;;;;2.00;2.00;;;;;-143.90;100.00;76125.41;4918670;28;103319;-72
2023/12/27 03:52:59;;;;;;;;;2.00;2.00;;;;;-143.90;100.00;76121.28;4914988;28;101521;-71
2023/12/27 03:55:26;;;;;;;;;2.00;2.00;;;;;-143.90;100.00;76135.75;4923063;28;104588;-71
2023/12/27 03:57:53;;;;;;;;;1.00;1.00;;;;;-143.90;100.00;76152.28;4925290;28;101685;-72
2023/12/27 04:00:21;;;;;;;;;3.00;2.00;;;;;-143.90;100.00;76158.50;4926005;28;103333;-71
2023/12/27 04:02:48;;;;;;;;;3.00;2.25;;;;;-143.90;100.00;76162.63;4916380;28;102066;-71
2023/12/27 04:05:14;;;;;;;;;6.50;3.50;;;;;-143.90;100.00;76166.75;4921572;28;103337;-73
2023/12/27 04:07:41;;;;;;;;;2.00;1.00;;;;;-143.90;100.00;76164.69;4907238;28;101974;-72
2023/12/27 04:10:08;;;;;;;;;2.00;2.00;;;;;-143.90;100.00;76172.97;4924275;28;103511;-72
2023/12/27 04:12:35;;;;;;;;;5.00;2.00;;;;;-143.90;100.00;76183.31;4924502;28;103664;-72
2023/12/27 04:15:02;;;;;;;;;3.50;1.75;;;;;-143.90;100.00;76210.19;4900263;28;101927;-72
2023/12/27 04:17:29;;;;;;;;;2.00;2.00;;;;;-143.90;100.00;76201.91;4920717;28;101801;-72
2023/12/27 04:19:55;;;;;;;;;3.00;2.00;;;;;-143.90;100.00;76208.13;4922755;28;103636;-73
2023/12/27 04:22:22;;;;;;;;;3.00;3.00;;;;;-143.90;100.00;76222.59;4922169;28;103373;-72
2023/12/27 04:24:48;;;;;;;;;1.00;1.00;;;;;-143.90;100.00;76232.94;4921069;28;102612;-73
2023/12/27 04:27:15;;;;;;;;;2.50;2.25;;;;;-143.90;100.00;76243.28;4920401;28;101990;-72
2023/12/27 04:29:42;;;;;;;;;2.00;1.00;;;;;-143.90;100.00;76245.34;4919370;28;103578;-72
2023/12/27 04:32:08;;;;;;;;;2.75;2.00;;;;;-143.90;100.00;76251.53;4921042;28;101917;-72
2023/12/27 04:34:35;;;;;;;;;2.25;1.75;;;;;-143.90;100.00;76259.81;4922928;28;101830;-74
2023/12/27 04:37:02;;;;;;;;;1.50;1.00;;;;;-143.90;100.00;76272.22;4918867;28;105320;-73
2023/12/27 04:39:30;;;;;;;;;2.00;1.50;;;;;-143.90;100.00;76276.38;4921421;28;103414;-74
2023/12/27 04:41:57;;;;;;;;;2.00;1.50;;;;;-143.90;100.00;76282.56;4919157;28;101657;-74
2023/12/27 04:44:24;;;;;;;;;1.00;0.00;;;;;-143.90;100.00;76292.91;4920940;28;101910;-75
2023/12/27 04:46:50;;;;;;;;;1.00;0.50;;;;;-143.90;100.00;76305.31;4916979;28;102982;-75
2023/12/27 04:49:19;;;;;;;;;2.00;2.00;;;;;-143.90;100.00;76303.25;4918382;28;109729;-74
2023/12/27 04:51:46;;;;;;;;;1.00;0.50;;;;;-143.90;100.00;76315.66;4918137;28;101902;-75
2023/12/27 04:54:13;;;;;;;;;1.00;1.00;;;;;-143.90;100.00;76321.84;4917519;28;102998;-73
2023/12/27 04:56:39;;;;;;;;;1.00;1.00;;;;;-143.90;100.00;76330.13;4918318;28;102154;-72
2023/12/27 04:59:06;;;;;;;;;0.00;0.00;;;;;-143.90;100.00;76326.00;4915081;28;103489;-73
2023/12/27 05:01:32;;;;;;;;;0.00;0.00;;;;;-143.90;100.00;76332.19;4917650;28;102252;-73
2023/12/27 05:03:59;;;;;;;;;0.00;0.00;;;;;-143.90;100.00;76348.75;4921507;28;104562;-72
2023/12/27 05:06:26;;;;;;;;;1.00;0.75;;;;;-143.90;100.00;76363.22;4923000;28;101883;-75
2023/12/27 05:08:52;;;;;;;;;2.00;1.00;;;;;-143.90;100.00;76363.22;4899041;28;103346;-72
2023/12/27 05:11:20;;;;;;;;;0.00;0.00;;;;;-143.90;100.00;76377.69;4923438;28;101662;-73
2023/12/27 05:13:47;;;;;;;;;1.00;0.75;;;;;-143.90;100.00;76379.75;4918811;28;102171;-73
2023/12/27 05:16:15;;;;;;;;;0.75;0.75;;;;;-143.90;100.00;76392.16;4921814;28;101758;-73
2023/12/27 05:18:43;;;;;;;;;0.00;0.00;;;;;-143.90;100.00;76412.84;4914104;28;103062;-74
2023/12/27 05:21:12;;;;;;;;;0.50;0.00;;;;;-143.90;100.00;76423.19;4923138;28;101574;-73
2023/12/27 05:23:39;;;;;;;;;0.25;0.25;;;;;-143.90;100.00;76423.19;4922541;28;102071;-73
2023/12/27 05:26:05;;;;;;;;;0.00;0.00;;;;;-143.90;100.00;76431.47;4920421;28;101841;-72
2023/12/27 05:28:32;;;;;;;;;2.00;0.25;;;;;-143.90;100.00;76441.81;4920576;28;103445;-73
2023/12/27 05:30:59;;;;;;;;;0.75;0.75;;;;;-143.90;100.00;76433.53;4914255;28;101929;-74
2023/12/27 05:33:26;;;;;;;;;1.50;1.00;;;;;-143.90;100.00;76445.94;4921426;28;102125;-73
2023/12/27 05:35:53;;;;;;;;;1.00;0.25;;;;;-143.90;100.00;76450.06;4919260;28;103008;-73
2023/12/27 05:38:23;;;;;;;;;1.00;1.00;;;;;-143.90;100.00;76452.16;4919293;28;103360;-71
2023/12/27 05:40:49;;;;;;;;;2.00;1.50;;;;;-143.90;100.00;76462.47;4913167;28;102302;-71
2023/12/27 05:43:16;;;;;;;;;2.00;1.00;;;;;-143.90;100.00;76468.69;4919242;28;102551;-72
2023/12/27 05:45:43;;;;;;;;;2.00;1.00;;;;;-143.90;100.00;76470.75;4920947;28;107000;-72
2023/12/27 05:48:10;;;;;;;;;1.75;1.75;;;;;-143.90;100.00;76479.03;4916266;28;103654;-72
2023/12/27 05:50:37;;;;;;;;;4.00;1.75;;;;;-143.90;100.00;76487.31;4916153;28;101918;-72
2023/12/27 05:53:03;;;;;;;;;1.00;1.00;;;;;-143.90;100.00;76491.44;4911217;28;102425;-71
2023/12/27 05:55:30;;;;;;;;;1.00;0.75;;;;;-143.90;100.00;76493.50;4920229;28;101741;-71
2023/12/27 05:57:58;;;;;;;;;2.00;1.00;;;;;-143.90;100.00;76489.38;4915042;28;103584;-72
2023/12/27 06:00:25;;;;;;;;;1.00;1.00;;;;;-143.90;100.00;76483.16;4914758;28;101957;-71
2023/12/27 06:02:51;;;;;;;;;0.75;0.00;;;;;-143.90;100.00;76485.22;4918198;28;102235;-72
2023/12/27 06:05:19;;;;;;;;;3.00;1.75;;;;;-143.90;100.00;76487.31;4925936;28;101854;-72
2023/12/27 06:07:47;;;;;;;;;2.00;1.75;;;;;-143.90;100.00;76487.31;4924698;28;103303;-72
2023/12/27 06:10:14;;;;;;;;;1.75;1.75;;;;;-143.90;100.00;76491.44;4921982;28;102864;-73
2023/12/27 06:12:41;;;;;;;;;1.00;1.00;;;;;-143.90;100.00;76501.78;4921286;28;101891;-73
2023/12/27 06:15:09;;;;;;;;;3.00;3.00;;;;;-143.90;100.00;76495.56;4921599;28;101693;-73
2023/12/27 06:17:36;;;;;;;;;2.50;2.00;;;;;-143.90;100.00;76495.56;4924792;28;103352;-74
2023/12/27 06:20:05;;;;;;;;;1.00;1.00;;;;;-143.90;100.00;76507.97;4922599;28;101899;-73
2023/12/27 06:22:31;;;;;;;;;2.00;2.00;;;;;-143.90;100.00;76493.50;4921743;28;101984;-73
2023/12/27 06:24:58;;;;;;;;;1.75;1.00;;;;;-143.90;100.00;76497.63;4920811;28;102097;-73
2023/12/27 06:27:24;;;;;;;;;2.75;2.00;;;;;-143.90;100.00;76514.19;4923678;28;103366;-73
2023/12/27 06:29:51;;;;;;;;;2.00;1.00;;;;;-143.90;100.00;76505.91;4923084;28;103374;-73
2023/12/27 06:32:18;;;;;;;;;4.00;2.25;;;;;-143.90;100.00;76526.59;4922509;28;102123;-74
2023/12/27 06:34:44;;;;;;;;;1.00;1.00;;;;;-143.90;100.00;76532.78;4916304;28;101922;-72
2023/12/27 06:37:11;;;;;;;;;1.00;1.00;;;;;-143.90;100.00;76541.06;4921871;28;103268;-71
2023/12/27 06:39:38;;;;;;;;;1.00;1.00;;;;;-143.90;100.00;76549.34;4922998;28;102080;-74
2023/12/27 06:42:04;;;;;;;;;4.25;1.00;;;;;-143.90;100.00;76545.22;4920178;28;102991;-74
2023/12/27 06:44:31;;;;;;;;;0.50;0.50;;;;;-143.90;100.00;76557.63;4925321;28;101473;-73
2023/12/27 06:46:58;;;;;;;;;1.00;1.00;;;;;-143.90;100.00;76563.81;4914439;28;103200;-77
2023/12/27 06:49:24;;;;;;;;;1.75;1.00;;;;;-143.90;100.00;76586.56;4922968;28;101847;-73
2023/12/27 06:51:51;;;;;;;;;2.00;1.00;;;;;-143.90;100.00;76590.72;4924415;28;101862;-73
2023/12/27 06:54:18;;;;;;;;;3.00;2.00;;;;;-143.90;100.00;76588.63;4921159;28;102756;-73
2023/12/27 06:56:44;;;;;;;;;0.75;0.50;;;;;-143.90;100.00;76588.63;4917374;28;103504;-73
2023/12/27 06:59:12;;;;;;;;;4.50;4.50;;;;;-143.90;100.00;76603.13;4920701;28;102958;-73
2023/12/27 07:01:39;;;;;;;;;3.00;3.00;;;;;-143.90;100.00;76613.47;4923132;28;101968;-72
2023/12/27 07:04:05;;;;;;;;;4.00;2.00;;;;;-143.90;100.00;76613.47;4921374;28;103231;-73
2023/12/27 07:06:32;;;;;;;;;2.25;2.25;;;;;-143.90;100.00;76621.72;4921536;28;103970;-73
2023/12/27 07:08:59;;;;;;;;;4.00;3.00;;;;;-143.90;100.00;76625.88;4912068;28;101747;-72
2023/12/27 07:11:25;;;;;;;;;3.50;3.50;;;;;-143.90;100.00;76636.22;4920931;28;101772;-73
2023/12/27 07:13:52;;;;;;;;;6.00;6.00;;;;;-143.90;100.00;76640.34;4924829;28;102407;-73
2023/12/27 07:16:19;;;;;;;;;1.50;1.00;;;;;-143.90;100.00;76644.47;4926175;28;107601;-73
2023/12/27 07:18:46;;;;;;;;;5.75;2.75;;;;;-143.90;100.00;76644.47;4914454;28;101727;-73
2023/12/27 07:21:13;;;;;;;;;2.00;2.00;;;;;-143.90;100.00;76636.22;4925111;28;101871;-72
2023/12/27 07:23:40;;;;;;;;;5.00;2.25;;;;;-143.90;100.00;76640.34;4926499;28;102136;-73
2023/12/27 07:26:11;;;;;;;;;1.00;1.00;;;;;-143.90;100.00;76644.47;4923757;28;103532;-72
2023/12/27 07:28:39;;;;;;;;;6.00;3.50;;;;;-143.90;100.00;76648.63;4906662;28;101591;-72
2023/12/27 07:31:07;;;;;;;;;3.00;3.00;;;;;-143.90;100.00;76646.53;4916926;28;101585;-72
2023/12/27 07:33:37;;;;;;;;;3.00;3.00;;;;;-143.90;100.00;76648.63;4925420;28;101637;-73
2023/12/27 07:36:05;;;;;;;;;4.00;3.00;;;;;-143.90;100.00;76648.63;4923122;28;103366;-73
2023/12/27 07:38:31;;;;;;;;;5.25;4.50;;;;;-143.90;100.00;76648.63;4926402;28;101890;-72
2023/12/27 07:40:58;;;;;;;;;15.00;13.25;;;;;-143.90;100.00;76656.88;4918752;28;101813;-74
2023/12/27 07:43:25;;;;;;;;;12.25;10.00;;;;;-143.90;100.00;76648.63;4926400;28;102940;-72
2023/12/27 07:45:52;;;;;;;;;9.00;8.00;;;;;-143.90;100.00;76650.69;4925413;28;103403;-73
2023/12/27 07:48:18;;;;;;;;;5.00;5.00;;;;;-143.90;100.00;76656.88;4924819;28;101829;-73
2023/12/27 07:50:46;;;;;;;;;3.00;3.00;;;;;-143.90;100.00;76661.03;4918306;28;101697;-72
2023/12/27 07:53:12;;;;;;;;;3.50;3.25;;;;;-143.90;100.00;76650.69;4924184;28;101538;-72
2023/12/27 07:55:39;;;;;;;;;4.00;3.00;;;;;-143.90;100.00;76648.63;4923906;28;103497;-72
2023/12/27 07:58:06;;;;;;;;;7.00;3.50;;;;;-143.90;100.00;76640.34;4923258;28;101735;-72
2023/12/27 08:00:32;;;;;;;;;6.00;2.50;;;;;-143.90;100.00;76632.06;4921040;28;101959;-72
2023/12/27 08:02:59;;;;;;;;;7.50;5.50;;;;;-143.90;100.00;76627.94;4917742;28;101923;-72
2023/12/27 08:05:26;;;;;;;;;13.50;10.00;;;;;-143.90;100.00;76644.47;4919663;28;103715;-71
2023/12/27 08:07:53;;;;;;;;;6.25;4.50;;;;;-143.90;100.00;76642.41;4925117;28;103938;-73
2023/12/27 08:10:19;;;;;;;;;3.00;3.00;;;;;-143.90;100.00;76644.47;4925291;28;101809;-73
2023/12/27 08:12:46;;;;;;;;;5.00;4.50;;;;;-143.90;100.00;76648.63;4918265;28;102030;-73
2023/12/27 08:15:13;;;;;;;;;5.50;3.00;;;;;-143.90;100.00;76644.47;4923004;28;103554;-72
2023/12/27 08:17:39;;;;;;;;;5.00;5.00;;;;;-143.90;100.00;76652.75;4922371;28;101782;-73
2023/12/27 08:20:07;;;;;;;;;5.00;4.50;;;;;-143.90;100.00;76640.34;4922828;28;101491;-73
2023/12/27 08:22:33;;;;;;;;;5.50;5.00;;;;;-143.90;100.00;76652.75;4926000;28;101522;-73
2023/12/27 08:25:00;;;;;;;;;9.00;6.00;;;;;-143.90;100.00;76638.28;4918509;28;103373;-72
2023/12/27 08:27:27;;;;;;;;;7.00;6.25;;;;;-143.90;100.00;76646.53;4921154;28;102390;-72
2023/12/27 08:29:54;;;;;;;;;6.25;5.25;;;;;-143.90;100.00;76646.53;4924641;28;102486;-73
2023/12/27 08:32:20;;;;;;;;;5.75;3.00;;;;;-143.90;100.00;76640.34;4923160;28;101972;-72
2023/12/27 08:34:49;;;;;;;;;4.00;3.00;;;;;-143.90;100.00;76636.22;4901158;28;104001;-72
2023/12/27 08:37:15;;;;;;;;;7.00;5.00;;;;;-143.90;100.00;76636.22;4927514;28;101615;-73
2023/12/27 08:39:43;;;;;;;;;6.75;6.00;;;;;-143.90;100.00;76644.47;4922595;28;104362;-73
2023/12/27 08:42:10;;;;;;;;;10.00;5.00;;;;;-143.90;100.00;76625.88;4907303;28;101988;-72
2023/12/27 08:44:37;;;;;;;;;10.25;4.50;;;;;-143.90;100.00;76619.66;4919554;28;103389;-73
2023/12/27 08:47:03;;;;;;;;;5.75;5.75;;;;;-143.90;100.00;76615.53;4918402;28;101572;-72
2023/12/27 08:49:30;;;;;;;;;7.00;6.25;;;;;-143.90;100.00;76607.25;4903253;28;101851;-72
2023/12/27 08:51:57;;;;;;;;;6.75;5.00;;;;;-143.90;100.00;76615.53;4921660;28;102035;-72
2023/12/27 08:54:23;;;;;;;;;5.00;3.00;;;;;-143.90;100.00;76605.19;4923141;28;103456;-78
2023/12/27 08:56:51;;;;;;;;;6.25;5.00;;;;;-143.90;99.07;76609.31;4918263;28;102003;-72
2023/12/27 08:59:18;;;;;;;;;5.50;3.00;;;;;-143.90;98.79;76611.38;4919723;28;102994;-73
2023/12/27 09:01:44;;;;;;;;;6.50;5.50;;;;;-143.90;99.37;76603.13;4923171;28;103599;-73
2023/12/27 09:04:11;;;;;;;;;5.25;3.00;;;;;-143.90;99.84;76592.78;4922480;28;103091;-73
2023/12/27 09:06:38;;;;;;;;;6.50;5.00;;;;;-143.90;98.03;76592.78;4921676;28;101936;-73
2023/12/27 09:09:05;;;;;;;;;5.50;5.00;;;;;-143.90;98.37;76588.63;4916177;28;101660;-73
2023/12/27 09:11:31;;;;;;;;;3.00;3.00;;;;;-143.90;97.97;76598.97;4920862;28;102784;-74
2023/12/27 09:14:08;;;;;;;;;6.50;5.25;;;;;-143.90;97.58;76586.56;4921858;28;103415;-73
2023/12/27 09:16:35;;;;;;;;;5.75;3.00;;;;;-143.90;98.38;76580.38;4923369;28;101849;-74
2023/12/27 09:19:02;;;;;;;;;8.00;5.00;;;;;-143.90;97.27;76565.88;4914574;28;101938;-73
2023/12/27 09:21:29;;;;;;;;;5.00;5.00;;;;;-143.90;95.92;76570.03;4922916;28;101575;-73
2023/12/27 09:23:58;;;;;;;;;7.25;5.00;;;;;-143.90;96.03;76553.47;4924318;28;103342;-73
2023/12/27 09:26:25;;;;;;;;;6.25;5.00;;;;;-143.90;95.14;76578.31;4921997;28;101851;-73
2023/12/27 09:28:52;;;;;;;;;6.00;3.00;;;;;-143.90;96.03;76567.97;4915220;28;101894;-73
2023/12/27 09:31:18;;;;;;;;;5.50;5.50;;;;;-143.90;95.39;76553.47;4925223;28;101953;-73
2023/12/27 09:33:45;;;;;;;;;6.25;3.00;;;;;-143.90;95.39;76549.34;4923700;28;103353;-73
2023/12/27 09:36:12;;;;;;;;;5.00;5.00;;;;;-143.90;94.49;76547.28;4922662;28;101760;-74
2023/12/27 09:38:39;;;;;;;;;5.00;4.75;;;;;-143.90;94.72;76532.78;4924484;28;104019;-72
2023/12/27 09:41:07;;;;;;;;;6.00;6.00;;;;;-143.90;94.82;76528.66;4921803;28;101633;-75
2023/12/27 09:43:37;;;;;;;;;7.25;6.25;;;;;-143.90;93.81;76516.25;4922217;28;103550;-73
2023/12/27 09:46:06;;;;;;;;;5.00;3.50;;;;;-143.90;93.67;76524.53;4925860;28;101907;-73
2023/12/27 09:48:36;;;;;;;;;4.00;3.00;;;;;-143.90;94.03;76530.72;4924747;28;101795;-73
2023/12/27 09:51:04;;;;;;;;;3.50;3.50;;;;;-143.90;93.55;76524.53;4921617;28;102043;-73
2023/12/27 09:53:31;;;;;;;;;7.00;5.00;;;;;-143.90;93.08;76501.78;4923863;28;102716;-73
2023/12/27 09:55:59;;;;;;;;;6.00;3.00;;;;;-143.90;93.54;76507.97;4926101;28;102250;-73
2023/12/27 09:58:30;;;;;;;;;7.00;4.75;;;;;-143.90;93.03;76497.63;4924880;28;102371;-72
2023/12/27 10:01:00;;;;;;;;;5.00;2.75;;;;;-143.90;91.91;76512.13;4921519;28;101601;-73
2023/12/27 10:03:35;;;;;;;;;7.00;3.00;;;;;-143.90;91.79;76520.38;4921599;28;103313;-72
2023/12/27 10:06:16;;;;;;;;;5.50;3.00;;;;;-143.90;92.17;76503.84;4925813;28;101856;-73
2023/12/27 10:08:43;;;;;;;;;3.50;2.75;;;;;-143.90;89.99;76510.06;4917681;28;102087;-71
2023/12/27 10:11:11;;;;;;;;;2.25;2.00;;;;;-143.90;90.10;76518.31;4927365;28;102020;-73
2023/12/27 10:13:41;;;;;;;;;2.00;2.00;;;;;-143.90;89.28;76499.72;4924344;28;103525;-72
2023/12/27 10:16:07;;;;;;;;;3.00;1.00;;;;;-143.90;91.19;76499.72;4924929;28;102077;-73
2023/12/27 10:18:34;;;;;;;;;6.00;3.00;;;;;-143.90;91.04;76489.38;4924900;28;101783;-73
2023/12/27 10:21:01;;;;;;;;;1.00;0.25;;;;;-143.90;89.84;76479.03;4903703;28;102134;-73
2023/12/27 10:23:28;;;;;;;;;2.00;2.00;;;;;-143.90;89.99;76466.63;4927717;28;103903;-73
2023/12/27 10:25:55;;;;;;;;;2.50;2.00;;;;;-143.90;88.36;76456.28;4925445;28;102112;-73
2023/12/27 10:28:25;;;;;;;;;2.00;2.00;;;;;-143.90;89.55;76445.94;4910695;28;101789;-73
2023/12/27 10:30:53;;;;;;;;;3.25;3.00;;;;;-143.90;62.52;76466.63;4918394;28;102026;-71
2023/12/27 10:33:20;;;;;;;;;3.00;2.00;;;;;-143.90;61.40;76470.75;4924898;28;107347;-74
2023/12/27 10:35:55;;;;;;;;;2.00;1.25;;;;;-143.90;61.63;76441.81;4922540;28;103044;-73
2023/12/27 10:38:21;;;;;;;;;5.50;5.00;;;;;-143.90;60.85;76437.66;4925693;28;101605;-74
2023/12/27 10:40:51;;;;;;;;;2.00;1.25;;;;;-143.90;60.23;76427.31;4918098;28;102050;-74
2023/12/27 10:43:18;;;;;;;;;2.00;2.00;;;;;-143.90;59.69;76441.81;4922778;28;103534;-74
2023/12/27 10:45:45;;;;;;;;;2.75;1.25;;;;;-143.90;59.30;76448.00;4924340;28;101495;-73
2023/12/27 10:48:13;;;;;;;;;2.00;1.00;;;;;-143.90;59.93;76443.88;4925308;28;102098;-73
2023/12/27 10:50:41;;;;;;;;;2.75;0.75;;;;;-143.90;60.35;76460.41;4920125;28;102136;-75
2023/12/27 10:53:11;;;;;;;;;3.00;2.25;;;;;-143.90;59.56;76454.22;4921756;28;104371;-73
2023/12/27 10:55:38;;;;;;;;;2.75;2.00;;;;;-143.90;61.12;76423.19;4926527;28;101953;-72
2023/12/27 10:58:23;;;;;;;;;3.75;3.00;;;;;-143.90;59.71;76417.00;4925255;28;101769;-73
2023/12/27 11:00:50;;;;;;;;;3.25;3.25;;;;;-143.90;59.56;76417.00;4915946;28;101887;-73
2023/12/27 11:03:18;;;;;;;;;6.00;3.00;;;;;-143.90;59.48;76408.72;4923979;28;103322;-73